Time;durP1;ratioP1;P1;durP2;ratioP2;P2;SDS_P1;SDS_P2;PMS_P1;PMS_P2;Temp;Humidity;BMP_temperature;BMP_pressure;BME280_temperature;BME280_humidity;BME280_pressure;Samples;Min_cycle;Max_cycle;Signal;HPM_P1;HPM_P2
2022/07/19 00:02:03;;;;;;;5.28;3.42;;;21.30;99.90;;;;;;5072435;28;20040;-73
2022/07/19 00:04:29;;;;;;;8.48;2.90;;;21.20;99.90;;;;;;5055637;28;20040;-73
2022/07/19 00:06:55;;;;;;;5.82;3.17;;;21.20;99.90;;;;;;5072442;28;20033;-73
2022/07/19 00:09:22;;;;;;;5.25;3.00;;;21.20;99.90;;;;;;5072300;28;20505;-73
2022/07/19 00:11:48;;;;;;;5.28;3.35;;;21.30;99.90;;;;;;5072483;28;20033;-73
2022/07/19 00:14:13;;;;;;;4.72;2.95;;;21.30;99.90;;;;;;5072362;28;20408;-73
2022/07/19 00:16:39;;;;;;;8.80;2.95;;;21.40;99.90;;;;;;5072187;28;20045;-73
2022/07/19 00:19:05;;;;;;;8.65;3.25;;;21.40;99.90;;;;;;5055617;28;20048;-73
2022/07/19 00:21:30;;;;;;;4.63;3.20;;;21.40;99.90;;;;;;5055451;28;20421;-73
2022/07/19 00:23:56;;;;;;;8.25;3.15;;;21.50;99.90;;;;;;5055311;28;20037;-73
2022/07/19 00:26:22;;;;;;;5.68;3.30;;;21.50;99.90;;;;;;5072185;28;20114;-73
2022/07/19 00:28:47;;;;;;;7.70;2.80;;;21.60;99.90;;;;;;5072242;28;20044;-72
2022/07/19 00:31:13;;;;;;;6.20;3.03;;;21.60;99.90;;;;;;5072197;28;20561;-72
2022/07/19 00:33:38;;;;;;;6.55;3.22;;;21.60;99.90;;;;;;5071865;28;20040;-73
2022/07/19 00:36:04;;;;;;;7.35;2.97;;;21.70;99.90;;;;;;5071958;28;20041;-73
2022/07/19 00:38:30;;;;;;;6.88;3.88;;;21.70;99.90;;;;;;5055235;28;20051;-73
2022/07/19 00:40:56;;;;;;;6.38;3.00;;;21.70;99.90;;;;;;5055209;28;20033;-73
2022/07/19 00:43:21;;;;;;;7.95;2.88;;;21.80;99.80;;;;;;5071801;28;20040;-73
2022/07/19 00:45:47;;;;;;;6.03;2.83;;;21.80;99.10;;;;;;5055111;28;20068;-73
2022/07/19 00:48:12;;;;;;;6.25;3.10;;;21.80;99.30;;;;;;5071780;28;20484;-73
2022/07/19 00:50:38;;;;;;;9.52;3.80;;;21.80;98.90;;;;;;5055033;28;20547;-73
2022/07/19 00:53:05;;;;;;;8.75;3.30;;;21.80;98.30;;;;;;5071938;28;20028;-73
2022/07/19 00:55:33;;;;;;;7.45;3.50;;;21.80;98.20;;;;;;5071840;28;20047;-73
2022/07/19 00:58:00;;;;;;;8.18;3.45;;;21.90;97.70;;;;;;5071746;28;20070;-73
2022/07/19 01:00:28;;;;;;;6.13;3.17;;;21.90;97.50;;;;;;5054981;28;20039;-73
2022/07/19 01:02:54;;;;;;;6.20;3.13;;;21.90;97.20;;;;;;5071833;28;20551;-73
2022/07/19 01:05:19;;;;;;;6.40;3.45;;;21.90;96.90;;;;;;5071690;28;20044;-73
2022/07/19 01:07:45;;;;;;;6.80;3.03;;;21.90;96.60;;;;;;5071606;28;20032;-73
2022/07/19 01:10:13;;;;;;;7.18;3.55;;;21.90;96.10;;;;;;5054880;28;20525;-73
2022/07/19 01:12:39;;;;;;;7.72;3.05;;;21.90;95.50;;;;;;5071741;28;20041;-73
2022/07/19 01:15:20;;;;;;;5.47;3.25;;;21.90;95.60;;;;;;5054799;28;20037;-73
2022/07/19 01:17:46;;;;;;;7.32;3.38;;;21.90;95.30;;;;;;5056723;28;20044;-73
2022/07/19 01:20:13;;;;;;;6.40;3.40;;;21.90;95.40;;;;;;5075598;28;20051;-73
2022/07/19 01:22:41;;;;;;;5.90;3.08;;;21.90;95.30;;;;;;5075674;28;20067;-73
2022/07/19 01:25:07;;;;;;;6.65;3.40;;;21.90;95.50;;;;;;5059028;28;20119;-73
2022/07/19 01:27:51;;;;;;;7.15;3.80;;;21.90;95.40;;;;;;5075397;28;20103;-73
2022/07/19 01:30:19;;;;;;;6.25;3.30;;;21.90;94.90;;;;;;5075436;28;20173;-73
2022/07/19 01:32:45;;;;;;;5.18;3.17;;;21.90;95.00;;;;;;5075325;28;20044;-73
2022/07/19 01:35:11;;;;;;;6.25;3.40;;;21.80;94.80;;;;;;5075259;28;20036;-72
2022/07/19 01:37:37;;;;;;;6.30;3.47;;;21.80;95.00;;;;;;5075186;28;20513;-73
2022/07/19 01:40:04;;;;;;;8.30;3.33;;;21.80;95.00;;;;;;5058506;28;20082;-73
2022/07/19 01:42:30;;;;;;;8.40;3.55;;;21.80;95.00;;;;;;5075062;28;20382;-73
2022/07/19 01:44:56;;;;;;;4.30;3.13;;;21.80;95.50;;;;;;5074958;28;20043;-73
2022/07/19 01:47:22;;;;;;;8.48;3.00;;;21.80;95.20;;;;;;5058213;28;20047;-73
2022/07/19 01:49:48;;;;;;;7.13;3.35;;;21.80;95.20;;;;;;5075196;28;20040;-73
2022/07/19 01:52:14;;;;;;;5.70;3.40;;;21.70;95.10;;;;;;5075156;28;20078;-73
2022/07/19 01:54:39;;;;;;;7.35;3.28;;;21.80;95.00;;;;;;5058126;28;20493;-73
2022/07/19 01:57:05;;;;;;;8.90;3.38;;;21.70;95.10;;;;;;5074858;28;20041;-73
2022/07/19 01:59:31;;;;;;;6.22;3.35;;;21.70;95.00;;;;;;5074803;28;20054;-73
2022/07/19 02:01:56;;;;;;;7.43;3.15;;;21.70;95.10;;;;;;5074763;28;20044;-73
2022/07/19 02:04:22;;;;;;;7.78;3.67;;;21.70;95.50;;;;;;5074838;28;20083;-73
2022/07/19 02:06:47;;;;;;;9.25;3.80;;;21.70;95.30;;;;;;5074735;28;20052;-73
2022/07/19 02:09:13;;;;;;;7.90;4.25;;;21.60;95.20;;;;;;5058269;28;20401;-73
2022/07/19 02:11:38;;;;;;;8.30;3.70;;;21.60;95.30;;;;;;5074536;28;20043;-73
2022/07/19 02:14:07;;;;;;;7.60;3.60;;;21.60;95.20;;;;;;5074411;28;20033;-73
2022/07/19 02:16:35;;;;;;;8.18;3.45;;;21.60;95.20;;;;;;5074465;28;20497;-73
2022/07/19 02:19:02;;;;;;;6.78;3.58;;;21.60;95.20;;;;;;5057544;28;20054;-73
2022/07/19 02:21:28;;;;;;;6.22;3.65;;;21.50;95.30;;;;;;5074612;28;20127;-73
2022/07/19 02:23:53;;;;;;;8.02;3.83;;;21.50;95.40;;;;;;5074213;28;20125;-73
2022/07/19 02:26:19;;;;;;;7.68;3.40;;;21.50;95.70;;;;;;5057728;28;20040;-73
2022/07/19 02:28:44;;;;;;;6.63;3.53;;;21.50;95.70;;;;;;5056487;28;20063;-73
2022/07/19 02:31:10;;;;;;;9.43;3.58;;;21.50;95.90;;;;;;5074237;28;20149;-73
2022/07/19 02:33:35;;;;;;;5.68;3.70;;;21.40;96.10;;;;;;5074114;28;20044;-73
2022/07/19 02:36:01;;;;;;;5.55;3.60;;;21.40;96.40;;;;;;5057484;28;20032;-73
2022/07/19 02:38:27;;;;;;;10.43;3.95;;;21.40;96.30;;;;;;5074056;28;20048;-73
2022/07/19 02:40:52;;;;;;;7.13;3.70;;;21.30;96.30;;;;;;5074038;28;20033;-73
2022/07/19 02:43:18;;;;;;;8.07;3.83;;;21.30;96.30;;;;;;5073851;28;20090;-73
2022/07/19 02:45:43;;;;;;;8.30;3.78;;;21.30;96.60;;;;;;5073931;28;20032;-73
2022/07/19 02:48:09;;;;;;;8.02;4.03;;;21.30;96.60;;;;;;5057257;28;20045;-73
2022/07/19 02:50:35;;;;;;;8.15;3.80;;;21.30;96.80;;;;;;5073833;28;20040;-73
2022/07/19 02:53:02;;;;;;;5.90;3.92;;;21.30;97.00;;;;;;5073751;28;20033;-73
2022/07/19 02:55:27;;;;;;;9.55;3.80;;;21.30;96.80;;;;;;5074026;28;20048;-73
2022/07/19 02:57:53;;;;;;;6.35;3.58;;;21.30;96.90;;;;;;5073713;28;20049;-73
2022/07/19 03:00:19;;;;;;;10.50;4.50;;;21.30;96.80;;;;;;5073872;28;20063;-73
2022/07/19 03:02:47;;;;;;;7.40;3.78;;;21.20;96.60;;;;;;5073568;28;20079;-73
2022/07/19 03:05:13;;;;;;;6.28;3.42;;;21.20;96.70;;;;;;5073814;28;20032;-73
2022/07/19 03:07:38;;;;;;;7.90;4.03;;;21.20;96.60;;;;;;5056791;28;20559;-73
2022/07/19 03:10:05;;;;;;;8.18;4.20;;;21.20;96.70;;;;;;5073681;28;20119;-73
2022/07/19 03:12:31;;;;;;;7.70;3.90;;;21.20;96.40;;;;;;5056987;28;20032;-73
2022/07/19 03:14:56;;;;;;;7.90;3.88;;;21.20;96.40;;;;;;5073555;28;20043;-73
2022/07/19 03:17:22;;;;;;;7.50;3.88;;;21.10;96.40;;;;;;5073268;28;20032;-73
2022/07/19 03:19:47;;;;;;;7.10;3.40;;;21.20;96.60;;;;;;5073382;28;20048;-73
2022/07/19 03:22:13;;;;;;;7.47;3.85;;;21.10;96.50;;;;;;5056871;28;20127;-73
2022/07/19 03:24:39;;;;;;;10.10;4.22;;;21.10;96.50;;;;;;5073366;28;20428;-73
2022/07/19 03:27:04;;;;;;;6.93;3.50;;;21.10;96.60;;;;;;5073042;28;20078;-73
2022/07/19 03:29:30;;;;;;;7.70;4.30;;;21.00;96.70;;;;;;5073009;28;20075;-73
2022/07/19 03:31:56;;;;;;;8.68;3.83;;;21.00;96.70;;;;;;5056300;28;20029;-73
2022/07/19 03:34:22;;;;;;;6.82;3.78;;;21.00;96.60;;;;;;5056500;28;20059;-73
2022/07/19 03:36:48;;;;;;;6.30;3.90;;;21.00;97.60;;;;;;5072891;28;20413;-73
2022/07/19 03:39:13;;;;;;;8.55;3.78;;;21.00;97.40;;;;;;5073064;28;20040;-73
2022/07/19 03:41:39;;;;;;;12.93;4.80;;;21.00;98.00;;;;;;5056215;28;20080;-73
2022/07/19 03:44:04;;;;;;;9.73;4.38;;;21.00;97.20;;;;;;5072657;28;20036;-73
2022/07/19 03:46:30;;;;;;;9.65;4.28;;;21.00;96.50;;;;;;5072649;28;20047;-73
2022/07/19 03:48:56;;;;;;;11.30;3.70;;;21.00;96.10;;;;;;5072643;28;20039;-73
2022/07/19 03:51:23;;;;;;;10.60;4.10;;;21.10;96.00;;;;;;5072558;28;20570;-73
2022/07/19 03:53:49;;;;;;;9.50;4.35;;;21.00;95.60;;;;;;5072586;28;20078;-73
2022/07/19 03:56:17;;;;;;;10.57;4.25;;;21.10;95.50;;;;;;5072556;28;20036;-73
2022/07/19 03:58:44;;;;;;;8.00;4.00;;;21.10;95.40;;;;;;5055823;28;20032;-73
2022/07/19 04:01:09;;;;;;;9.93;4.10;;;21.10;95.50;;;;;;5072507;28;20032;-73
2022/07/19 04:03:39;;;;;;;9.57;4.45;;;21.10;95.50;;;;;;5072296;28;20120;-73
2022/07/19 04:06:10;;;;;;;7.20;4.38;;;21.10;95.40;;;;;;5072232;28;20037;-73
2022/07/19 04:08:35;;;;;;;10.15;4.63;;;21.10;95.10;;;;;;5072365;28;20493;-73
2022/07/19 04:11:01;;;;;;;9.75;4.57;;;21.10;95.50;;;;;;5055665;28;20036;-73
2022/07/19 04:13:27;;;;;;;11.20;4.22;;;21.10;95.40;;;;;;5055559;28;20051;-73
2022/07/19 04:15:52;;;;;;;12.75;4.25;;;21.10;95.30;;;;;;5055788;28;20041;-73
2022/07/19 04:18:18;;;;;;;9.73;3.90;;;21.10;95.40;;;;;;5072046;28;20405;-73
2022/07/19 04:20:44;;;;;;;6.55;3.58;;;21.10;95.00;;;;;;5072205;28;20044;-73
2022/07/19 04:23:09;;;;;;;8.23;4.22;;;21.10;95.60;;;;;;5072410;28;20044;-73
2022/07/19 04:25:35;;;;;;;6.97;4.20;;;21.10;95.30;;;;;;5072037;28;20037;-73
2022/07/19 04:28:01;;;;;;;6.00;3.95;;;21.10;95.40;;;;;;5071998;28;20040;-73
2022/07/19 04:30:27;;;;;;;9.60;4.45;;;21.10;95.90;;;;;;5055351;28;20475;-73
2022/07/19 04:32:53;;;;;;;13.43;4.63;;;21.10;95.70;;;;;;5055492;28;20040;-73
2022/07/19 04:35:19;;;;;;;10.88;4.10;;;21.10;96.20;;;;;;5072200;28;20083;-73
2022/07/19 04:37:45;;;;;;;10.15;4.55;;;21.10;96.20;;;;;;5072017;28;20078;-73
2022/07/19 04:40:10;;;;;;;6.25;3.90;;;21.10;96.80;;;;;;5055279;28;20044;-73
2022/07/19 04:42:36;;;;;;;6.72;3.85;;;21.10;97.10;;;;;;5055431;28;20136;-73
2022/07/19 04:45:02;;;;;;;8.80;4.20;;;21.10;97.30;;;;;;5071782;28;20040;-73
2022/07/19 04:47:28;;;;;;;8.90;4.22;;;21.10;98.00;;;;;;5071834;28;20062;-73
2022/07/19 04:49:53;;;;;;;7.28;4.28;;;21.10;97.70;;;;;;5071832;28;20037;-73
2022/07/19 04:52:19;;;;;;;7.10;4.05;;;21.10;97.30;;;;;;5071390;28;20155;-73
2022/07/19 04:54:44;;;;;;;6.65;3.88;;;21.10;98.10;;;;;;5055002;28;20599;-73
2022/07/19 04:57:10;;;;;;;8.32;5.05;;;21.00;99.00;;;;;;5072061;28;20036;-73
2022/07/19 04:59:36;;;;;;;7.50;3.78;;;21.00;98.10;;;;;;5055087;28;20036;-73
2022/07/19 05:02:01;;;;;;;8.25;4.40;;;21.00;98.00;;;;;;5054953;28;20044;-73
2022/07/19 05:04:27;;;;;;;9.40;4.50;;;21.10;98.00;;;;;;5071617;28;20044;-73
2022/07/19 05:06:56;;;;;;;7.07;3.90;;;21.10;97.80;;;;;;5071695;28;20036;-73
2022/07/19 05:09:26;;;;;;;7.28;4.38;;;21.20;98.50;;;;;;5071666;28;20111;-73
2022/07/19 05:11:52;;;;;;;6.55;4.40;;;21.20;98.00;;;;;;5071591;28;20040;-73
2022/07/19 05:14:18;;;;;;;9.57;4.70;;;21.20;97.80;;;;;;5071558;28;20044;-74
2022/07/19 05:16:45;;;;;;;8.50;4.43;;;21.20;97.40;;;;;;5071547;28;20504;-73
2022/07/19 05:19:11;;;;;;;12.93;4.43;;;21.30;97.40;;;;;;5071694;28;20040;-73
2022/07/19 05:21:36;;;;;;;9.15;4.35;;;21.30;97.50;;;;;;5054819;28;20408;-73
2022/07/19 05:24:02;;;;;;;9.95;4.32;;;21.30;97.60;;;;;;5071400;28;20032;-73
2022/07/19 05:26:28;;;;;;;9.43;4.47;;;21.40;97.80;;;;;;5071945;28;20106;-73
2022/07/19 05:28:53;;;;;;;8.52;4.60;;;21.30;97.30;;;;;;5071441;28;20033;-73
2022/07/19 05:31:19;;;;;;;7.88;4.32;;;21.30;97.30;;;;;;5054715;28;20044;-73
2022/07/19 05:33:45;;;;;;;6.65;4.38;;;21.40;97.70;;;;;;5071300;28;20055;-73
2022/07/19 05:36:11;;;;;;;8.40;4.55;;;21.40;97.70;;;;;;5071637;28;20037;-73
2022/07/19 05:38:40;;;;;;;13.48;4.50;;;21.40;97.20;;;;;;5071366;28;20040;-73
2022/07/19 05:41:07;;;;;;;8.70;4.80;;;21.50;97.50;;;;;;5071349;28;20032;-73
2022/07/19 05:43:35;;;;;;;9.15;5.10;;;21.50;97.30;;;;;;5071338;28;20045;-73
2022/07/19 05:46:00;;;;;;;12.05;5.35;;;21.60;97.90;;;;;;5054841;28;20040;-73
2022/07/19 05:48:26;;;;;;;10.02;5.20;;;21.60;97.60;;;;;;5071125;28;20090;-73
2022/07/19 05:50:51;;;;;;;7.97;4.95;;;21.60;96.90;;;;;;5071479;28;20040;-73
2022/07/19 05:53:18;;;;;;;8.38;4.95;;;21.70;96.80;;;;;;5055272;28;20044;-73
2022/07/19 05:55:44;;;;;;;7.53;4.88;;;21.70;96.60;;;;;;5071222;28;20524;-73
2022/07/19 05:58:10;;;;;;;9.70;5.28;;;21.70;96.70;;;;;;5071136;28;20037;-73
2022/07/19 06:00:36;;;;;;;7.28;4.85;;;21.80;96.30;;;;;;5071136;28;20040;-73
2022/07/19 06:03:01;;;;;;;9.93;4.80;;;21.80;96.10;;;;;;5071834;28;20036;-73
2022/07/19 06:05:27;;;;;;;9.93;5.13;;;21.90;96.00;;;;;;5074731;28;20044;-73
2022/07/19 06:07:52;;;;;;;8.77;5.22;;;21.90;96.00;;;;;;5074529;28;20127;-73
2022/07/19 06:10:18;;;;;;;6.80;4.97;;;22.00;95.60;;;;;;5074603;28;20041;-73
2022/07/19 06:12:43;;;;;;;8.70;5.22;;;22.10;96.00;;;;;;5057903;28;20047;-73
2022/07/19 06:15:10;;;;;;;8.18;5.20;;;22.10;96.80;;;;;;5057981;28;20032;-73
2022/07/19 06:17:35;;;;;;;7.95;4.85;;;22.20;96.60;;;;;;5057763;28;20040;-73
2022/07/19 06:20:01;;;;;;;8.07;4.70;;;22.30;96.00;;;;;;5074368;28;20127;-73
2022/07/19 06:22:31;;;;;;;10.10;5.05;;;22.30;96.40;;;;;;5074428;28;20045;-73
2022/07/19 06:24:57;;;;;;;7.20;4.80;;;22.40;95.80;;;;;;5074270;28;20044;-73
2022/07/19 06:27:23;;;;;;;8.63;4.60;;;22.40;95.40;;;;;;5057490;28;20119;-73
2022/07/19 06:29:48;;;;;;;7.75;4.53;;;22.50;96.00;;;;;;5074231;28;20083;-73
2022/07/19 06:32:14;;;;;;;9.55;5.45;;;22.50;95.90;;;;;;5074471;28;20044;-73
2022/07/19 06:34:39;;;;;;;9.88;4.57;;;22.60;95.90;;;;;;5057456;28;20037;-73
2022/07/19 06:37:05;;;;;;;9.43;4.55;;;22.70;96.00;;;;;;5074363;28;20040;-73
2022/07/19 06:39:31;;;;;;;7.55;3.92;;;22.70;96.80;;;;;;5057560;28;20400;-73
2022/07/19 06:41:57;;;;;;;7.97;4.80;;;22.80;96.90;;;;;;5074320;28;20569;-73
2022/07/19 06:44:22;;;;;;;11.13;5.00;;;22.90;96.70;;;;;;5073853;28;20489;-73
2022/07/19 06:46:48;;;;;;;9.18;4.43;;;22.90;96.90;;;;;;5057331;28;20072;-73
2022/07/19 06:49:14;;;;;;;10.43;4.40;;;23.00;97.10;;;;;;5057185;28;20493;-73
2022/07/19 06:51:40;;;;;;;12.20;4.68;;;23.10;97.10;;;;;;5073849;28;20044;-73
2022/07/19 06:54:05;;;;;;;9.52;4.80;;;23.20;97.70;;;;;;5073785;28;20044;-73
2022/07/19 06:56:31;;;;;;;8.63;4.20;;;23.20;97.20;;;;;;5074036;28;20041;-73
2022/07/19 06:58:56;;;;;;;7.28;4.60;;;23.30;97.20;;;;;;5073946;28;20044;-73
2022/07/19 07:01:22;;;;;;;14.98;4.70;;;23.40;97.40;;;;;;5073723;28;20405;-73
2022/07/19 07:03:48;;;;;;;10.18;4.45;;;23.50;97.30;;;;;;5073925;28;20044;-73
2022/07/19 07:06:13;;;;;;;8.77;4.47;;;23.50;97.30;;;;;;5073689;28;20083;-73
2022/07/19 07:08:39;;;;;;;7.53;4.35;;;23.60;99.00;;;;;;5056849;28;20036;-73
2022/07/19 07:11:04;;;;;;;11.43;4.32;;;23.70;98.30;;;;;;5073435;28;20032;-73
2022/07/19 07:13:30;;;;;;;8.60;4.00;;;23.80;97.90;;;;;;5073298;28;20036;-73
2022/07/19 07:15:56;;;;;;;8.02;3.80;;;23.90;98.70;;;;;;5072757;28;20040;-73
2022/07/19 07:18:21;;;;;;;6.65;4.03;;;24.00;98.30;;;;;;5073272;28;20076;-73
2022/07/19 07:20:47;;;;;;;8.65;3.92;;;24.10;98.80;;;;;;5073290;28;20045;-73
2022/07/19 07:23:12;;;;;;;7.60;3.50;;;24.20;97.70;;;;;;5073119;28;20040;-73
2022/07/19 07:25:38;;;;;;;6.60;4.10;;;24.40;98.00;;;;;;5073228;28;20123;-73
2022/07/19 07:28:04;;;;;;;10.63;4.07;;;24.50;96.40;;;;;;5056435;28;20408;-73
2022/07/19 07:30:29;;;;;;;11.63;4.13;;;24.60;95.40;;;;;;5073336;28;20040;-73
2022/07/19 07:32:56;;;;;;;6.45;3.72;;;24.70;95.60;;;;;;5073232;28;20408;-73
2022/07/19 07:35:21;;;;;;;7.75;3.40;;;24.80;95.20;;;;;;5056620;28;20551;-73
2022/07/19 07:37:47;;;;;;;6.38;2.97;;;24.90;96.10;;;;;;5056323;28;20479;-73
2022/07/19 07:40:13;;;;;;;7.68;3.88;;;25.10;95.80;;;;;;5056179;28;20040;-73
2022/07/19 07:42:38;;;;;;;11.25;3.40;;;25.20;95.20;;;;;;5072801;28;20044;-73
2022/07/19 07:45:07;;;;;;;11.35;3.78;;;25.30;94.00;;;;;;5072716;28;20044;-73
2022/07/19 07:47:32;;;;;;;9.13;3.15;;;25.50;92.10;;;;;;5072801;28;20044;-73
2022/07/19 07:49:58;;;;;;;7.95;3.33;;;25.60;92.90;;;;;;5072900;28;20439;-73
2022/07/19 07:52:23;;;;;;;10.40;3.10;;;25.70;94.30;;;;;;5056023;28;20476;-73
2022/07/19 07:54:50;;;;;;;4.50;3.00;;;25.90;94.10;;;;;;5072607;28;20028;-73
2022/07/19 07:57:16;;;;;;;9.32;3.13;;;26.00;93.60;;;;;;5055980;28;20500;-73
2022/07/19 07:59:42;;;;;;;7.03;2.78;;;26.20;91.10;;;;;;5055860;28;20043;-73
2022/07/19 08:02:07;;;;;;;7.75;3.08;;;26.30;90.90;;;;;;5072439;28;20055;-73
2022/07/19 08:04:33;;;;;;;8.20;3.00;;;26.40;90.90;;;;;;5072452;28;20047;-74
2022/07/19 08:06:58;;;;;;;9.40;2.80;;;26.50;90.80;;;;;;5072311;28;20044;-73
2022/07/19 08:09:24;;;;;;;9.85;3.22;;;26.60;91.20;;;;;;5072643;28;20046;-74
2022/07/19 08:11:50;;;;;;;10.55;3.20;;;26.80;89.70;;;;;;5072272;28;20036;-73
2022/07/19 08:14:15;;;;;;;11.48;3.60;;;26.90;85.10;;;;;;5055571;28;20121;-73
2022/07/19 08:16:41;;;;;;;6.88;3.15;;;27.00;85.50;;;;;;5072250;28;20094;-73
2022/07/19 08:19:07;;;;;;;8.50;2.60;;;27.10;82.80;;;;;;5072336;28;20125;-73
2022/07/19 08:21:32;;;;;;;7.75;2.90;;;27.20;82.00;;;;;;5072136;28;20408;-73
2022/07/19 08:23:58;;;;;;;7.75;2.78;;;27.40;83.90;;;;;;5072034;28;20045;-73
2022/07/19 08:26:24;;;;;;;13.50;3.17;;;27.50;82.50;;;;;;5055054;28;20041;-73
2022/07/19 08:28:49;;;;;;;12.63;2.80;;;27.70;78.90;;;;;;5071901;28;20481;-73
2022/07/19 08:31:15;;;;;;;10.18;3.08;;;27.80;78.80;;;;;;5055360;28;20043;-73
2022/07/19 08:33:41;;;;;;;9.55;2.67;;;27.90;78.40;;;;;;5072245;28;20040;-73
2022/07/19 08:36:09;;;;;;;7.95;2.67;;;28.10;76.00;;;;;;5071996;28;20438;-73
2022/07/19 08:38:35;;;;;;;7.38;2.58;;;28.20;74.20;;;;;;5055277;28;20043;-73
2022/07/19 08:41:01;;;;;;;8.95;2.50;;;28.30;72.90;;;;;;5055337;28;20067;-73
2022/07/19 08:43:27;;;;;;;7.60;2.40;;;28.50;72.60;;;;;;5055438;28;20040;-73
2022/07/19 08:45:53;;;;;;;9.50;2.40;;;28.60;71.60;;;;;;5055438;28;20390;-73
2022/07/19 08:48:20;;;;;;;6.43;2.15;;;28.80;70.40;;;;;;5071861;28;20044;-73
2022/07/19 08:50:47;;;;;;;7.30;2.92;;;29.00;69.10;;;;;;5072060;28;20187;-74
2022/07/19 08:53:15;;;;;;;9.73;2.30;;;29.10;69.30;;;;;;5055038;28;20477;-74
2022/07/19 08:55:40;;;;;;;5.30;2.20;;;29.20;65.80;;;;;;5072038;28;20044;-73
2022/07/19 08:58:06;;;;;;;5.72;2.40;;;29.40;64.50;;;;;;5055110;28;20047;-74
2022/07/19 09:00:33;;;;;;;6.95;2.13;;;29.60;64.30;;;;;;5055088;28;20047;-74
2022/07/19 09:03:05;;;;;;;6.50;2.05;;;29.70;61.40;;;;;;5071622;28;20493;-74
2022/07/19 09:05:33;;;;;;;;;;;29.80;58.70;;;;;;5072218;28;20076;-74
2022/07/19 09:08:19;;;;;;;5.88;2.20;;;29.90;57.40;;;;;;5071668;28;19978;-73
2022/07/19 09:13:31;;;;;;;8.93;2.20;;;30.20;57.60;;;;;;5071652;28;20479;-73
2022/07/19 09:15:57;;;;;;;7.85;2.05;;;30.30;55.90;;;;;;5071559;28;20043;-73
2022/07/19 09:18:26;;;;;;;8.18;2.38;;;30.50;55.30;;;;;;5054815;28;20040;-73
2022/07/19 09:20:57;;;;;;;8.90;2.17;;;30.60;55.90;;;;;;5071579;28;20040;-74
2022/07/19 09:23:23;;;;;;;7.27;1.90;;;30.80;53.90;;;;;;5071538;28;20080;-74
2022/07/19 09:26:05;;;;;;;8.38;1.90;;;30.90;53.50;;;;;;5054847;28;20329;-74
2022/07/19 09:28:34;;;;;;;8.48;2.00;;;31.00;53.50;;;;;;5071381;28;20047;-74
2022/07/19 09:31:01;;;;;;;5.85;1.70;;;31.20;52.40;;;;;;5071482;28;20047;-74
2022/07/19 09:33:29;;;;;;;7.90;1.95;;;31.30;52.30;;;;;;5054705;28;20037;-74
2022/07/19 09:36:02;;;;;;;5.10;1.90;;;31.40;50.80;;;;;;5071669;28;20036;-74
2022/07/19 09:38:32;;;;;;;7.95;1.90;;;31.60;50.40;;;;;;5073018;28;20040;-74
2022/07/19 09:41:18;;;;;;;4.43;1.50;;;31.70;49.90;;;;;;5058796;28;20052;-74
2022/07/19 09:43:55;;;;;;;5.28;1.50;;;31.90;51.00;;;;;;5075014;28;20043;-74
2022/07/19 09:46:38;;;;;;;4.68;1.90;;;32.00;47.70;;;;;;5076276;28;20082;-74
2022/07/19 09:49:16;;;;;;;7.82;1.98;;;32.10;49.00;;;;;;5058447;28;20039;-74
2022/07/19 09:51:43;;;;;;;7.05;2.03;;;32.30;49.50;;;;;;5074998;28;20037;-74
2022/07/19 09:54:11;;;;;;;7.05;2.03;;;32.40;47.80;;;;;;5075207;28;20043;-74
2022/07/19 09:56:38;;;;;;;5.68;1.88;;;32.50;48.10;;;;;;5075142;28;20090;-74
2022/07/19 09:59:05;;;;;;;4.20;1.67;;;32.60;49.80;;;;;;5074808;28;20053;-74
2022/07/19 10:01:32;;;;;;;3.95;1.50;;;32.60;47.10;;;;;;5074761;28;20068;-74
2022/07/19 10:04:12;;;;;;;6.75;1.80;;;32.80;47.00;;;;;;5058155;28;20049;-74
2022/07/19 10:06:39;;;;;;;5.78;1.80;;;32.90;46.60;;;;;;5058015;28;20093;-74
2022/07/19 10:09:06;;;;;;;7.90;2.10;;;33.00;46.20;;;;;;5074963;28;20101;-74
2022/07/19 10:11:32;;;;;;;9.52;1.70;;;33.10;46.40;;;;;;5075845;28;20397;-74
2022/07/19 10:13:58;;;;;;;6.60;1.80;;;33.20;46.20;;;;;;5057845;28;20037;-74
2022/07/19 10:16:41;;;;;;;4.68;1.75;;;33.40;45.90;;;;;;5057871;28;20162;-74
2022/07/19 10:19:12;;;;;;;6.22;1.70;;;33.50;46.60;;;;;;5074338;28;20405;-73
2022/07/19 10:21:39;;;;;;;3.78;1.80;;;33.50;45.40;;;;;;5074543;28;20041;-73
2022/07/19 10:24:04;;;;;;;5.35;1.85;;;33.60;45.50;;;;;;5074574;28;20040;-73
2022/07/19 10:26:41;;;;;;;6.32;1.65;;;33.70;45.00;;;;;;5074234;28;20048;-73
2022/07/19 10:29:14;;;;;;;4.65;1.60;;;33.90;46.00;;;;;;5074631;28;20044;-73
2022/07/19 10:31:40;;;;;;;5.47;1.60;;;34.00;45.40;;;;;;5074335;28;20047;-73
2022/07/19 10:34:08;;;;;;;5.57;2.10;;;34.10;42.90;;;;;;5074599;28;20044;-73
2022/07/19 10:36:49;;;;;;;5.10;1.50;;;34.20;43.10;;;;;;5074184;28;20052;-74
2022/07/19 10:39:18;;;;;;;4.88;1.35;;;34.30;44.20;;;;;;5057747;28;20028;-74
2022/07/19 10:42:08;;;;;;;5.68;1.60;;;34.40;42.20;;;;;;5075584;28;20033;-74
2022/07/19 10:44:55;;;;;;;8.73;1.60;;;34.60;42.30;;;;;;5073891;28;20529;-74
2022/07/19 10:47:21;;;;;;;6.13;1.98;;;34.70;42.10;;;;;;5074037;28;20047;-74
2022/07/19 10:49:48;;;;;;;3.90;2.05;;;34.80;42.00;;;;;;5056241;28;20124;-74
2022/07/19 10:52:29;;;;;;;5.80;1.70;;;35.00;41.50;;;;;;5073910;28;20044;-74
2022/07/19 10:55:24;;;;;;;5.43;1.70;;;35.00;41.00;;;;;;5073973;28;20397;-74
2022/07/19 10:57:52;;;;;;;3.85;1.40;;;35.00;40.40;;;;;;5074121;28;20469;-74
2022/07/19 11:00:21;;;;;;;4.90;1.83;;;35.00;40.20;;;;;;5075281;28;20090;-74
2022/07/19 11:02:49;;;;;;;6.88;1.85;;;35.10;39.60;;;;;;5073940;28;20123;-74
2022/07/19 11:05:24;;;;;;;3.97;1.58;;;35.20;41.10;;;;;;5073648;28;20041;-74
2022/07/19 11:07:51;;;;;;;3.65;1.67;;;35.20;40.10;;;;;;5056826;28;20452;-74
2022/07/19 11:10:25;;;;;;;4.22;1.88;;;35.40;40.00;;;;;;5073683;28;20493;-74
2022/07/19 11:12:51;;;;;;;10.38;1.63;;;35.50;39.60;;;;;;5057068;28;20047;-74
2022/07/19 11:15:16;;;;;;;5.82;1.73;;;35.50;40.30;;;;;;5073421;28;20040;-74
2022/07/19 11:17:53;;;;;;;6.28;1.50;;;35.60;40.20;;;;;;5073382;28;20113;-74
2022/07/19 11:20:21;;;;;;;6.20;1.73;;;35.60;41.10;;;;;;5073395;28;20044;-74
2022/07/19 11:22:48;;;;;;;4.63;1.70;;;35.70;40.90;;;;;;5056547;28;20083;-75
2022/07/19 11:25:16;;;;;;;12.13;2.20;;;35.70;41.30;;;;;;5074697;28;20036;-74
2022/07/19 11:27:43;;;;;;;9.45;1.80;;;35.90;40.20;;;;;;5056472;28;20041;-74
2022/07/19 11:30:10;;;;;;;5.18;1.80;;;35.90;39.70;;;;;;5074450;28;20100;-74
2022/07/19 11:32:36;;;;;;;6.57;1.77;;;36.00;40.40;;;;;;5073104;28;20047;-73
2022/07/19 11:35:05;;;;;;;6.53;1.88;;;36.00;40.20;;;;;;5072907;28;20033;-74
2022/07/19 11:37:34;;;;;;;10.40;1.90;;;36.10;40.30;;;;;;5072940;28;20040;-74
2022/07/19 11:39:59;;;;;;;7.50;1.60;;;36.10;39.60;;;;;;5072924;28;20048;-74
2022/07/19 11:42:33;;;;;;;7.15;1.60;;;36.00;39.80;;;;;;5074407;28;20048;-75
2022/07/19 11:45:07;;;;;;;11.40;2.13;;;36.10;39.80;;;;;;5072736;28;20052;-76
2022/07/19 11:47:33;;;;;;;4.88;1.80;;;36.10;39.50;;;;;;5056088;28;20041;-76
2022/07/19 11:50:04;;;;;;;5.93;1.67;;;36.30;39.40;;;;;;5072649;28;20046;-76
2022/07/19 11:52:44;;;;;;;7.95;1.67;;;36.30;39.20;;;;;;5072723;28;20036;-76
2022/07/19 11:55:10;;;;;;;10.52;2.22;;;36.50;39.60;;;;;;5056702;28;20040;-77
2022/07/19 11:57:36;;;;;;;6.15;1.75;;;36.50;39.30;;;;;;5072562;28;20032;-77
2022/07/19 12:00:02;;;;;;;6.32;1.95;;;36.50;38.70;;;;;;5074016;28;20052;-75
2022/07/19 12:02:28;;;;;;;8.18;1.60;;;36.70;38.80;;;;;;5072969;28;20090;-75
2022/07/19 12:04:53;;;;;;;7.47;1.80;;;36.80;39.00;;;;;;5056340;28;20036;-75
2022/07/19 12:07:19;;;;;;;6.72;1.80;;;36.90;37.80;;;;;;5072325;28;20048;-76
2022/07/19 12:09:45;;;;;;;4.60;1.63;;;36.90;38.20;;;;;;5072347;28;20071;-76
2022/07/19 12:12:16;;;;;;;4.72;1.58;;;37.00;38.10;;;;;;5072286;28;20115;-76
2022/07/19 12:14:42;;;;;;;7.53;1.77;;;37.00;36.90;;;;;;5072215;28;20075;-76
2022/07/19 12:17:19;;;;;;;7.30;1.67;;;37.00;37.30;;;;;;5072441;28;20036;-76
2022/07/19 12:19:48;;;;;;;5.80;1.48;;;37.00;37.00;;;;;;5072532;28;20491;-75
2022/07/19 12:22:28;;;;;;;5.43;1.90;;;37.00;37.80;;;;;;5072290;28;20049;-74
2022/07/19 12:24:54;;;;;;;7.35;1.75;;;37.10;38.20;;;;;;5072130;28;20040;-74
2022/07/19 12:27:20;;;;;;;5.25;1.40;;;37.10;38.60;;;;;;5072095;28;20044;-74
2022/07/19 12:29:50;;;;;;;7.72;1.70;;;37.20;38.90;;;;;;5073632;28;20036;-74
2022/07/19 12:32:33;;;;;;;8.63;1.80;;;37.40;36.90;;;;;;5072488;28;20109;-74
2022/07/19 12:35:04;;;;;;;7.30;1.73;;;37.50;36.40;;;;;;5072173;28;20055;-74
2022/07/19 12:37:31;;;;;;;;;;;37.60;37.20;;;;;;5072554;28;20041;-74
2022/07/19 12:40:18;;;;;;;5.28;1.95;;;37.60;37.40;;;;;;5072085;28;19916;-74
2022/07/19 12:42:46;;;;;;;5.15;1.40;;;37.60;36.30;;;;;;5055328;28;20037;-74
2022/07/19 12:45:21;;;;;;;5.15;1.50;;;37.70;37.10;;;;;;5072020;28;20089;-74
2022/07/19 12:47:48;;;;;;;5.45;1.50;;;37.70;37.00;;;;;;5072242;28;20040;-74
2022/07/19 12:50:33;;;;;;;4.45;1.48;;;37.60;36.30;;;;;;5055197;28;20043;-74